createdAt,value
2023-11-25T00:00:49.926Z,8.32
2023-11-25T00:03:16.800Z,2.92
2023-11-25T00:08:09.780Z,2.80
2023-11-25T00:10:36.388Z,2.70
2023-11-25T00:13:04.948Z,3.72
2023-11-25T00:15:31.494Z,3.00
2023-11-25T00:17:58.482Z,3.95
2023-11-25T00:20:26.652Z,2.40
2023-11-25T00:22:56.267Z,4.32
2023-11-25T00:25:25.749Z,2.22
2023-11-25T00:27:52.559Z,3.03
2023-11-25T00:30:20.186Z,3.28
2023-11-25T00:32:47.609Z,3.78
2023-11-25T00:35:15.329Z,2.22
2023-11-25T00:37:42.407Z,3.38
2023-11-25T00:40:11.403Z,4.90
2023-11-25T00:42:41.622Z,6.38
2023-11-25T00:45:11.095Z,9.27
2023-11-25T00:47:38.001Z,8.63
2023-11-25T00:50:07.924Z,6.57
2023-11-25T00:52:34.664Z,3.38
2023-11-25T00:57:27.903Z,3.15
2023-11-25T00:59:54.713Z,4.45
2023-11-25T01:04:48.134Z,2.70
2023-11-25T01:07:14.826Z,3.08
2023-11-25T01:09:41.375Z,3.10
2023-11-25T01:12:08.551Z,4.80
2023-11-25T01:14:35.134Z,3.65
2023-11-25T01:17:02.448Z,2.30
2023-11-25T01:19:29.492Z,3.05
2023-11-25T01:21:56.377Z,3.83
2023-11-25T01:26:49.668Z,3.20
2023-11-25T01:29:16.342Z,2.53
2023-11-25T01:31:42.932Z,2.63
2023-11-25T01:34:09.573Z,3.15
2023-11-25T01:36:36.085Z,4.65
2023-11-25T01:39:02.622Z,3.17
2023-11-25T01:41:29.089Z,2.45
2023-11-25T01:43:56.116Z,2.28
2023-11-25T01:46:39.385Z,3.13
2023-11-25T01:49:13.976Z,3.38
2023-11-25T01:51:47.138Z,3.95
2023-11-25T01:54:17.664Z,2.83
2023-11-25T01:56:54.985Z,3.70
2023-11-25T01:59:23.974Z,3.22
2023-11-25T02:01:51.049Z,3.20
2023-11-25T02:04:18.491Z,3.13
2023-11-25T02:06:45.982Z,3.47
2023-11-25T02:09:12.944Z,3.25
2023-11-25T02:11:59.544Z,2.75
2023-11-25T02:14:26.950Z,2.92
2023-11-25T02:16:54.990Z,3.03
2023-11-25T02:19:22.880Z,2.85
2023-11-25T02:21:49.585Z,3.70
2023-11-25T02:24:16.113Z,5.20
2023-11-25T02:26:42.677Z,2.58
2023-11-25T02:29:09.184Z,5.03
2023-11-25T02:31:36.106Z,4.07
2023-11-25T02:34:02.764Z,3.67
2023-11-25T02:36:31.455Z,3.47
2023-11-25T02:39:00.350Z,4.32
2023-11-25T02:41:28.598Z,3.83
2023-11-25T02:43:55.140Z,4.60
2023-11-25T02:48:48.194Z,5.60
2023-11-25T02:51:14.774Z,4.10
2023-11-25T02:53:41.300Z,3.28
2023-11-25T02:56:07.893Z,3.45
2023-11-25T02:58:34.678Z,4.22
2023-11-25T03:03:29.436Z,2.97
2023-11-25T03:05:56.005Z,4.95
2023-11-25T03:08:23.837Z,5.22
2023-11-25T03:10:52.281Z,3.08
2023-11-25T03:13:19.187Z,4.28
2023-11-25T03:15:46.410Z,3.10
2023-11-25T03:18:13.140Z,3.45
2023-11-25T03:20:41.057Z,3.15
2023-11-25T03:23:10.864Z,4.45
2023-11-25T03:25:39.015Z,4.13
2023-11-25T03:28:11.763Z,2.75
2023-11-25T03:30:39.170Z,2.67
2023-11-25T03:33:05.773Z,4.10
2023-11-25T03:35:33.163Z,4.25
2023-11-25T03:37:59.766Z,3.70
2023-11-25T03:40:26.288Z,4.05
2023-11-25T03:42:52.963Z,3.85
2023-11-25T03:45:20.558Z,5.97
2023-11-25T03:47:47.103Z,6.78
2023-11-25T03:50:14.396Z,3.10
2023-11-25T03:52:44.644Z,3.00
2023-11-25T03:55:11.973Z,3.97
2023-11-25T03:57:39.802Z,3.85
2023-11-25T04:00:16.013Z,5.78
2023-11-25T04:02:45.689Z,3.55
2023-11-25T04:05:13.177Z,2.55
2023-11-25T04:07:40.580Z,3.30
2023-11-25T04:10:14.185Z,2.60
2023-11-25T04:12:48.248Z,2.10
2023-11-25T04:15:17.113Z,3.00
2023-11-25T04:17:44.039Z,2.95
2023-11-25T04:20:15.628Z,2.92
2023-11-25T04:22:44.273Z,2.63
2023-11-25T04:25:13.130Z,3.53
2023-11-25T04:27:43.696Z,4.22
2023-11-25T04:30:11.647Z,4.13
2023-11-25T04:32:41.245Z,3.70
2023-11-25T04:35:08.993Z,3.85
2023-11-25T04:37:35.610Z,3.60
2023-11-25T04:40:06.431Z,3.90
2023-11-25T04:42:33.677Z,3.95
2023-11-25T04:45:00.597Z,3.03
2023-11-25T04:47:28.078Z,3.92
2023-11-25T04:49:55.261Z,3.50
2023-11-25T04:52:22.067Z,3.85
2023-11-25T04:54:50.228Z,4.25
2023-11-25T04:57:16.937Z,3.40
2023-11-25T04:59:43.652Z,4.55
2023-11-25T05:02:10.268Z,3.50
2023-11-25T05:04:36.882Z,3.78
2023-11-25T05:07:05.006Z,3.80
2023-11-25T05:09:31.597Z,3.47
2023-11-25T05:11:58.097Z,3.45
2023-11-25T05:14:26.908Z,4.68
2023-11-25T05:16:53.520Z,4.05
2023-11-25T05:19:20.153Z,3.88
2023-11-25T05:21:46.721Z,3.63
2023-11-25T05:24:13.277Z,2.95
2023-11-25T05:26:39.820Z,5.50
2023-11-25T05:29:06.678Z,3.80
2023-11-25T05:31:36.367Z,4.63
2023-11-25T05:34:06.847Z,3.63
2023-11-25T05:36:34.084Z,3.05
2023-11-25T05:39:07.675Z,6.85
2023-11-25T05:41:38.455Z,4.10
2023-11-25T05:44:08.672Z,3.88
2023-11-25T05:46:35.925Z,3.38
2023-11-25T05:49:03.108Z,2.97
2023-11-25T05:51:35.065Z,3.75
2023-11-25T05:54:01.559Z,3.80
2023-11-25T05:56:28.176Z,3.47
2023-11-25T05:58:55.084Z,3.88
2023-11-25T06:01:23.057Z,3.50
2023-11-25T06:03:53.436Z,3.45
2023-11-25T06:06:22.394Z,5.63
2023-11-25T06:08:49.836Z,6.47
2023-11-25T06:11:23.800Z,3.35
2023-11-25T06:13:50.545Z,3.63
2023-11-25T06:16:17.260Z,3.10
2023-11-25T06:18:44.519Z,3.60
2023-11-25T06:21:11.866Z,4.60
2023-11-25T06:23:39.975Z,3.30
2023-11-25T06:26:08.711Z,6.03
2023-11-25T06:28:43.604Z,4.43
2023-11-25T06:31:12.297Z,5.38
2023-11-25T06:33:40.185Z,3.60
2023-11-25T06:36:07.463Z,3.88
2023-11-25T06:38:34.887Z,4.32
2023-11-25T06:41:04.660Z,3.08
2023-11-25T06:43:31.470Z,3.22
2023-11-25T06:48:24.922Z,5.10
2023-11-25T06:50:52.075Z,3.80
2023-11-25T06:53:18.645Z,2.67
2023-11-25T06:55:45.739Z,4.18
2023-11-25T06:58:12.916Z,6.03
2023-11-25T07:00:40.588Z,5.20
2023-11-25T07:03:07.566Z,4.30
2023-11-25T07:05:34.353Z,4.75
2023-11-25T07:08:00.854Z,5.22
2023-11-25T07:10:33.851Z,4.35
2023-11-25T07:13:00.854Z,4.07
2023-11-25T07:15:27.345Z,3.97
2023-11-25T07:17:53.895Z,3.75
2023-11-25T07:20:20.522Z,3.83
2023-11-25T07:22:47.000Z,4.35
2023-11-25T07:25:14.053Z,3.70
2023-11-25T07:27:42.641Z,4.78
2023-11-25T07:30:12.502Z,5.55
2023-11-25T07:32:39.297Z,6.00
2023-11-25T07:37:36.218Z,7.72
2023-11-25T07:40:10.484Z,6.57
2023-11-25T07:42:40.596Z,5.30
2023-11-25T07:45:11.360Z,6.07
2023-11-25T07:47:38.920Z,4.90
2023-11-25T07:50:06.300Z,6.40
2023-11-25T07:52:33.044Z,5.20
2023-11-25T07:57:26.130Z,3.40
2023-11-25T07:59:53.184Z,6.32
2023-11-25T08:02:19.982Z,5.30
2023-11-25T08:04:46.560Z,6.90
2023-11-25T08:07:13.110Z,5.88
2023-11-25T08:09:39.937Z,5.68
2023-11-25T08:14:33.775Z,5.10
2023-11-25T08:17:00.633Z,4.47
2023-11-25T08:19:27.284Z,3.03
2023-11-25T08:21:53.887Z,6.18
2023-11-25T08:24:20.565Z,5.03
2023-11-25T08:26:47.469Z,4.43
2023-11-25T08:29:14.042Z,5.93
2023-11-25T08:31:40.925Z,4.95
2023-11-25T08:34:10.539Z,5.03
2023-11-25T08:36:53.675Z,4.07
2023-11-25T08:39:33.824Z,3.65
2023-11-25T08:42:00.491Z,3.90
2023-11-25T08:44:28.305Z,4.28
2023-11-25T08:46:57.839Z,5.13
2023-11-25T08:49:25.251Z,3.42
2023-11-25T08:51:52.662Z,6.00
2023-11-25T08:54:19.688Z,5.95
2023-11-25T08:56:46.994Z,5.28
2023-11-25T08:59:20.097Z,4.78
2023-11-25T09:04:21.337Z,4.93
2023-11-25T09:06:48.998Z,3.17
2023-11-25T09:09:20.725Z,3.13
2023-11-25T09:11:49.422Z,4.03
2023-11-25T09:14:17.826Z,4.05
2023-11-25T09:16:44.898Z,4.82
2023-11-25T09:19:12.580Z,4.38
2023-11-25T09:21:39.029Z,3.67
2023-11-25T09:24:06.388Z,4.60
2023-11-25T09:26:32.848Z,4.28
2023-11-25T09:28:59.357Z,4.38
2023-11-25T09:31:25.912Z,3.25
2023-11-25T09:33:52.640Z,2.75
2023-11-25T09:38:46.023Z,3.60
2023-11-25T09:41:13.057Z,4.22
2023-11-25T09:43:40.207Z,4.55
2023-11-25T09:46:07.141Z,3.63
2023-11-25T09:48:34.407Z,4.43
2023-11-25T09:51:03.558Z,4.50
2023-11-25T09:53:30.796Z,5.10
2023-11-25T09:56:06.331Z,3.33
2023-11-25T09:58:35.346Z,3.58
2023-11-25T10:01:07.082Z,3.70
2023-11-25T10:03:35.259Z,4.25
2023-11-25T10:06:03.436Z,3.30
2023-11-25T10:08:30.754Z,7.45
2023-11-25T10:11:07.463Z,4.32
2023-11-25T10:13:39.886Z,3.70
2023-11-25T10:16:08.168Z,3.08
2023-11-25T10:18:37.572Z,3.97
2023-11-25T10:21:08.508Z,3.70
2023-11-25T10:23:36.867Z,3.20
2023-11-25T10:26:04.964Z,4.90
2023-11-25T10:28:34.508Z,3.55
2023-11-25T10:31:03.660Z,4.47
2023-11-25T10:33:30.239Z,5.78
2023-11-25T10:35:58.052Z,3.60
2023-11-25T10:38:29.259Z,3.70
2023-11-25T10:41:07.092Z,3.58
2023-11-25T10:43:34.798Z,3.03
2023-11-25T10:46:06.804Z,2.70
2023-11-25T10:48:39.705Z,3.05
2023-11-25T10:51:07.223Z,4.05
2023-11-25T10:53:36.347Z,3.83
2023-11-25T10:56:05.169Z,4.78
2023-11-25T10:58:32.332Z,4.80
2023-11-25T11:01:00.705Z,2.85
2023-11-25T11:03:59.636Z,3.78
2023-11-25T11:06:34.389Z,5.47
2023-11-25T11:09:04.442Z,5.28
2023-11-25T11:11:46.537Z,3.90
2023-11-25T11:14:16.142Z,3.38
2023-11-25T11:16:48.720Z,3.78
2023-11-25T11:19:18.510Z,2.78
2023-11-25T11:21:50.237Z,3.42
2023-11-25T11:24:24.720Z,1.67
2023-11-25T11:27:05.268Z,1.77
2023-11-25T11:30:30.368Z,2.90
2023-11-25T11:32:58.357Z,3.13
2023-11-25T11:35:38.429Z,2.72
2023-11-25T11:38:24.929Z,3.63
2023-11-25T11:40:58.750Z,4.28
2023-11-25T11:43:25.491Z,3.40
2023-11-25T11:48:20.224Z,2.85
2023-11-25T11:50:55.754Z,3.65
2023-11-25T11:53:22.475Z,4.65
2023-11-25T11:55:54.124Z,2.97
2023-11-25T11:58:26.685Z,3.53
2023-11-25T12:01:03.058Z,5.43
2023-11-25T12:03:31.526Z,2.95
2023-11-25T12:05:58.467Z,2.47
2023-11-25T12:10:52.716Z,2.55
2023-11-25T12:13:29.753Z,2.75
2023-11-25T12:16:01.073Z,2.90
2023-11-25T12:18:29.001Z,2.63
2023-11-25T12:20:56.524Z,2.33
2023-11-25T12:23:36.798Z,3.42
2023-11-25T12:26:12.171Z,4.85
2023-11-25T12:28:45.683Z,2.75
2023-11-25T12:31:12.305Z,8.80
2023-11-25T12:33:40.613Z,3.97
2023-11-25T12:36:08.830Z,3.47
2023-11-25T12:38:38.052Z,4.35
2023-11-25T12:41:12.282Z,4.70
2023-11-25T12:43:39.262Z,2.28
2023-11-25T12:46:12.162Z,3.83
2023-11-25T12:48:38.748Z,5.07
2023-11-25T12:51:07.854Z,2.42
2023-11-25T12:53:37.574Z,4.65
2023-11-25T12:56:04.591Z,3.28
2023-11-25T12:58:32.374Z,2.15
2023-11-25T13:00:59.551Z,5.13
2023-11-25T13:03:34.054Z,3.45
2023-11-25T13:06:02.281Z,2.40
2023-11-25T13:08:32.648Z,3.08
2023-11-25T13:11:05.058Z,3.85
2023-11-25T13:13:33.167Z,2.15
2023-11-25T13:16:00.882Z,3.17
2023-11-25T13:18:28.016Z,3.80
2023-11-25T13:20:56.527Z,3.38
2023-11-25T13:23:23.245Z,4.03
2023-11-25T13:25:50.701Z,3.65
2023-11-25T13:28:17.238Z,5.25
2023-11-25T13:30:43.793Z,4.25
2023-11-25T13:33:13.159Z,4.28
2023-11-25T13:35:39.704Z,2.75
2023-11-25T13:38:07.403Z,3.60
2023-11-25T13:40:39.252Z,4.63
2023-11-25T13:43:10.733Z,3.42
2023-11-25T13:45:38.574Z,3.63
2023-11-25T13:48:06.291Z,3.00
2023-11-25T13:50:33.547Z,2.30
2023-11-25T13:53:02.288Z,5.00
2023-11-25T13:55:31.297Z,3.83
2023-11-25T13:57:57.862Z,3.13
2023-11-25T14:00:27.519Z,3.17
2023-11-25T14:02:54.656Z,6.07
2023-11-25T14:05:21.470Z,2.47
2023-11-25T14:10:15.897Z,2.88
2023-11-25T14:12:43.502Z,5.28
2023-11-25T14:15:11.199Z,3.90
2023-11-25T14:17:41.776Z,3.50
2023-11-25T14:20:18.694Z,3.42
2023-11-25T14:22:46.464Z,5.25
2023-11-25T14:25:14.751Z,4.85
2023-11-25T14:27:46.028Z,2.50
2023-11-25T14:30:13.783Z,5.20
2023-11-25T14:32:43.576Z,3.67
2023-11-25T14:35:11.218Z,2.53
2023-11-25T14:37:37.804Z,3.63
2023-11-25T14:40:05.544Z,5.50
2023-11-25T14:42:35.371Z,3.30
2023-11-25T14:45:02.154Z,2.72
2023-11-25T14:47:28.916Z,2.60
2023-11-25T14:49:55.664Z,2.67
2023-11-25T14:52:22.747Z,4.50
2023-11-25T14:54:49.686Z,3.88
2023-11-25T14:57:17.679Z,6.18
2023-11-25T14:59:44.871Z,3.17
2023-11-25T15:02:12.279Z,5.65
2023-11-25T15:04:39.711Z,6.60
2023-11-25T15:07:06.646Z,4.78
2023-11-25T15:09:33.188Z,3.65
2023-11-25T15:12:00.307Z,5.57
2023-11-25T15:14:31.642Z,4.10
2023-11-25T15:16:59.681Z,5.10
2023-11-25T15:19:26.250Z,5.38
2023-11-25T15:21:54.859Z,5.88
2023-11-25T15:24:21.394Z,5.65
2023-11-25T15:26:49.347Z,4.03
2023-11-25T15:29:18.029Z,5.47
2023-11-25T15:31:48.382Z,3.55
2023-11-25T15:34:15.471Z,3.85
2023-11-25T15:36:41.983Z,4.32
2023-11-25T15:39:09.898Z,3.65
2023-11-25T15:41:36.554Z,2.95
2023-11-25T15:44:03.263Z,2.92
2023-11-25T15:46:30.913Z,3.33
2023-11-25T15:48:58.326Z,4.15
2023-11-25T15:51:25.097Z,6.32
2023-11-25T15:53:51.702Z,4.30
2023-11-25T15:56:18.856Z,7.95
2023-11-25T15:58:45.884Z,8.57
2023-11-25T16:03:39.641Z,6.25
2023-11-25T16:06:07.208Z,4.63
2023-11-25T16:08:33.712Z,5.80
2023-11-25T16:11:00.366Z,6.07
2023-11-25T16:13:27.158Z,7.22
2023-11-25T16:15:54.800Z,6.40
2023-11-25T16:18:23.546Z,6.40
2023-11-25T16:20:51.412Z,8.20
2023-11-25T16:23:17.948Z,7.30
2023-11-25T16:25:44.417Z,6.30
2023-11-25T16:28:11.110Z,8.52
2023-11-25T16:30:37.616Z,6.63
2023-11-25T16:33:08.606Z,7.43
2023-11-25T16:35:35.367Z,6.00
2023-11-25T16:38:01.995Z,9.20
2023-11-25T16:40:28.642Z,8.05
2023-11-25T16:42:55.445Z,7.03
2023-11-25T16:45:23.564Z,5.75
2023-11-25T16:47:50.438Z,5.90
2023-11-25T16:52:44.199Z,7.05
2023-11-25T16:55:10.719Z,6.45
2023-11-25T16:57:38.920Z,7.03
2023-11-25T17:00:07.400Z,6.90
2023-11-25T17:02:34.060Z,9.82
2023-11-25T17:05:00.937Z,7.88
2023-11-25T17:09:53.975Z,6.50
2023-11-25T17:12:20.499Z,7.63
2023-11-25T17:14:47.019Z,7.40
2023-11-25T17:17:14.531Z,7.03
2023-11-25T17:19:41.072Z,7.85
2023-11-25T17:22:08.487Z,5.75
2023-11-25T17:24:37.817Z,7.80
2023-11-25T17:27:05.112Z,9.13
2023-11-25T17:29:31.866Z,7.60
2023-11-25T17:31:58.419Z,8.38
2023-11-25T17:34:25.309Z,8.23
2023-11-25T17:39:18.405Z,9.05
2023-11-25T17:41:45.146Z,9.60
2023-11-25T17:44:13.371Z,9.68
2023-11-25T17:46:42.930Z,8.75
2023-11-25T17:49:10.119Z,9.90
2023-11-25T17:51:36.992Z,9.52
2023-11-25T17:56:31.526Z,13.13
2023-11-25T17:58:58.139Z,10.50
2023-11-25T18:01:24.785Z,9.10
2023-11-25T18:03:51.829Z,8.82
2023-11-25T18:06:18.444Z,7.20
2023-11-25T18:08:46.134Z,11.50
2023-11-25T18:11:14.252Z,14.63
2023-11-25T18:13:40.933Z,11.43
2023-11-25T18:16:07.640Z,9.82
2023-11-25T18:18:34.364Z,10.77
2023-11-25T18:21:01.810Z,8.90
2023-11-25T18:23:28.341Z,12.57
2023-11-25T18:25:55.053Z,10.90
2023-11-25T18:28:21.646Z,10.18
2023-11-25T18:30:48.841Z,9.90
2023-11-25T18:33:15.858Z,8.45
2023-11-25T18:35:42.462Z,6.97
2023-11-25T18:38:09.066Z,7.28
2023-11-25T18:40:36.623Z,8.27
2023-11-25T18:43:03.543Z,8.63
2023-11-25T18:47:56.660Z,6.93
2023-11-25T18:50:28.708Z,9.48
2023-11-25T18:52:56.098Z,9.63
2023-11-25T18:55:22.635Z,6.25
2023-11-25T18:57:49.167Z,5.85
2023-11-25T19:00:15.808Z,7.57
2023-11-25T19:02:42.489Z,7.07
2023-11-25T19:05:09.625Z,7.47
2023-11-25T19:07:36.957Z,6.90
2023-11-25T19:10:04.027Z,7.75
2023-11-25T19:12:32.038Z,6.93
2023-11-25T19:14:59.611Z,7.20
2023-11-25T19:17:26.871Z,7.00
2023-11-25T19:19:53.744Z,6.60
2023-11-25T19:22:20.246Z,6.57
2023-11-25T19:24:46.823Z,8.27
2023-11-25T19:27:13.933Z,9.15
2023-11-25T19:29:43.016Z,6.68
2023-11-25T19:32:10.293Z,4.85
2023-11-25T19:34:36.928Z,7.18
2023-11-25T19:37:03.752Z,8.95
2023-11-25T19:41:56.940Z,5.45
2023-11-25T19:44:23.487Z,7.35
2023-11-25T19:46:55.104Z,7.70
2023-11-25T19:49:22.021Z,7.97
2023-11-25T19:54:22.361Z,6.32
2023-11-25T19:56:53.207Z,7.25
2023-11-25T19:59:20.218Z,6.28
2023-11-25T20:01:46.912Z,6.60
2023-11-25T20:06:40.092Z,6.55
2023-11-25T20:09:06.902Z,7.32
2023-11-25T20:14:00.680Z,10.02
2023-11-25T20:16:32.778Z,8.43
2023-11-25T20:18:59.968Z,10.40
2023-11-25T20:21:26.878Z,7.70
2023-11-25T20:23:53.366Z,6.20
2023-11-25T20:26:19.840Z,7.03
2023-11-25T20:28:47.108Z,5.05
2023-11-25T20:31:13.724Z,6.15
2023-11-25T20:33:40.405Z,6.10
2023-11-25T20:36:09.374Z,7.32
2023-11-25T20:38:35.896Z,6.13
2023-11-25T20:41:02.465Z,7.10
2023-11-25T20:43:29.024Z,8.40
2023-11-25T20:45:55.852Z,10.30
2023-11-25T20:50:49.006Z,7.45
2023-11-25T20:53:15.659Z,6.72
2023-11-25T20:55:43.527Z,10.13
2023-11-25T20:58:10.189Z,10.80
2023-11-25T21:00:37.236Z,9.18
2023-11-25T21:03:04.023Z,9.27
2023-11-25T21:05:30.828Z,10.13
2023-11-25T21:07:57.356Z,11.48
2023-11-25T21:10:23.861Z,8.80
2023-11-25T21:12:50.444Z,8.27
2023-11-25T21:15:16.910Z,7.00
2023-11-25T21:17:43.552Z,5.97
2023-11-25T21:20:10.756Z,5.63
2023-11-25T21:22:37.354Z,7.22
2023-11-25T21:25:04.123Z,6.32
2023-11-25T21:27:35.666Z,5.45
2023-11-25T21:30:02.818Z,5.78
2023-11-25T21:32:29.422Z,8.07
2023-11-25T21:34:56.900Z,6.50
2023-11-25T21:37:23.587Z,7.13
2023-11-25T21:39:50.099Z,9.20
2023-11-25T21:42:17.643Z,7.22
2023-11-25T21:44:44.130Z,6.18
2023-11-25T21:47:10.859Z,7.97
2023-11-25T21:49:43.771Z,6.00
2023-11-25T21:52:10.279Z,7.65
2023-11-25T21:54:38.770Z,7.75
2023-11-25T21:57:05.618Z,7.75
2023-11-25T22:02:00.167Z,8.02
2023-11-25T22:04:27.955Z,8.90
2023-11-25T22:06:55.640Z,8.50
2023-11-25T22:09:22.217Z,6.85
2023-11-25T22:11:48.974Z,5.68
2023-11-25T22:14:15.733Z,7.50
2023-11-25T22:16:42.416Z,8.48
2023-11-25T22:19:09.552Z,6.32
2023-11-25T22:21:36.154Z,7.78
2023-11-25T22:24:03.692Z,7.65
2023-11-25T22:26:38.796Z,7.95
2023-11-25T22:29:05.515Z,6.63
2023-11-25T22:31:32.672Z,6.35
2023-11-25T22:34:00.201Z,6.95
2023-11-25T22:36:28.210Z,5.88
2023-11-25T22:38:55.899Z,6.60
2023-11-25T22:41:25.088Z,5.10
2023-11-25T22:43:52.770Z,6.65
2023-11-25T22:46:22.116Z,9.75
2023-11-25T22:48:49.337Z,9.02
2023-11-25T22:51:16.410Z,6.55
2023-11-25T22:53:43.319Z,6.47
2023-11-25T22:56:10.770Z,8.05
2023-11-25T22:58:37.328Z,6.50
2023-11-25T23:01:05.178Z,8.55
2023-11-25T23:03:32.461Z,9.38
2023-11-25T23:05:59.152Z,8.15
2023-11-25T23:08:26.344Z,9.02
2023-11-25T23:10:53.502Z,6.90
2023-11-25T23:13:21.171Z,9.82
2023-11-25T23:15:47.742Z,9.65
2023-11-25T23:18:14.246Z,6.97
2023-11-25T23:20:40.742Z,7.18
2023-11-25T23:23:08.071Z,6.72
2023-11-25T23:25:34.734Z,7.10
2023-11-25T23:28:01.255Z,7.00
2023-11-25T23:30:27.748Z,7.72
2023-11-25T23:32:54.322Z,5.97
2023-11-25T23:35:20.947Z,7.55
2023-11-25T23:37:47.598Z,7.43
2023-11-25T23:40:14.220Z,7.30
2023-11-25T23:42:41.149Z,6.43
2023-11-25T23:47:34.360Z,7.38
2023-11-25T23:50:01.489Z,6.30
2023-11-25T23:52:28.077Z,7.43
2023-11-25T23:54:54.704Z,8.20
2023-11-25T23:57:21.296Z,6.10
2023-11-25T23:59:47.883Z,5.82
